createdAt,value
2019-05-05T00:01:45.031Z,7.90
2019-05-05T00:06:06.430Z,7.90
2019-05-05T00:10:57.086Z,7.90
2019-05-05T00:15:41.082Z,7.80
2019-05-05T00:19:59.358Z,7.70
2019-05-05T00:24:17.892Z,7.60
2019-05-05T00:28:36.574Z,7.60
2019-05-05T00:32:55.050Z,7.60
2019-05-05T00:37:15.129Z,7.60
2019-05-05T00:41:35.060Z,7.70
2019-05-05T00:45:55.724Z,7.80
2019-05-05T00:50:19.753Z,7.80
2019-05-05T00:54:38.113Z,7.90
2019-05-05T00:59:00.190Z,7.90
2019-05-05T01:03:24.196Z,7.80
2019-05-05T01:07:44.255Z,7.80
2019-05-05T01:12:04.269Z,7.70
2019-05-05T01:16:24.575Z,7.60
2019-05-05T01:20:44.826Z,7.60
2019-05-05T01:25:05.282Z,7.50
2019-05-05T01:29:25.249Z,7.50
2019-05-05T01:34:07.776Z,7.40
2019-05-05T01:38:41.146Z,7.40
2019-05-05T01:42:59.801Z,7.30
2019-05-05T01:47:18.495Z,7.30
2019-05-05T01:51:36.834Z,7.20
2019-05-05T01:55:55.589Z,7.20
2019-05-05T02:00:14.950Z,7.10
2019-05-05T02:04:34.378Z,7.10
2019-05-05T02:08:54.689Z,7.00
2019-05-05T02:13:12.674Z,7.00
2019-05-05T02:17:31.397Z,7.00
2019-05-05T02:21:50.858Z,6.90
2019-05-05T02:26:10.782Z,6.90
2019-05-05T02:30:39.811Z,6.90
2019-05-05T02:35:00.004Z,6.90
2019-05-05T02:39:18.432Z,6.90
2019-05-05T02:43:39.357Z,6.90
2019-05-05T02:48:15.292Z,6.90
2019-05-05T02:52:34.806Z,7.00
2019-05-05T02:56:54.724Z,7.00
2019-05-05T03:01:35.908Z,7.00
2019-05-05T03:05:55.031Z,6.90
2019-05-05T03:10:14.139Z,7.00
2019-05-05T03:14:36.125Z,7.00
2019-05-05T03:18:55.808Z,7.00
2019-05-05T03:23:14.578Z,7.10
2019-05-05T03:27:34.209Z,7.10
2019-05-05T03:31:56.297Z,7.10
2019-05-05T03:36:14.130Z,7.10
2019-05-05T03:40:34.442Z,7.10
2019-05-05T03:45:12.111Z,7.10
2019-05-05T03:49:33.682Z,7.10
2019-05-05T03:53:53.489Z,7.20
2019-05-05T03:58:12.080Z,7.20
2019-05-05T04:02:55.385Z,7.20
2019-05-05T04:07:14.116Z,7.20
2019-05-05T04:11:33.810Z,7.20
2019-05-05T04:16:18.478Z,7.20
2019-05-05T04:20:44.037Z,7.20
2019-05-05T04:25:01.969Z,7.20
2019-05-05T04:29:20.659Z,7.20
2019-05-05T04:33:38.808Z,7.30
2019-05-05T04:37:57.029Z,7.30
2019-05-05T04:42:15.450Z,7.30
2019-05-05T04:46:34.813Z,7.30
2019-05-05T04:51:21.151Z,7.30
2019-05-05T04:55:39.778Z,7.40
2019-05-05T04:59:58.202Z,7.40
2019-05-05T05:04:53.446Z,7.40
2019-05-05T05:09:11.476Z,7.40
2019-05-05T05:13:32.150Z,7.40
2019-05-05T05:18:11.797Z,7.30
2019-05-05T05:22:33.513Z,7.40
2019-05-05T05:26:52.946Z,7.50
2019-05-05T05:31:13.968Z,7.40
2019-05-05T05:35:33.600Z,7.40
2019-05-05T05:40:08.535Z,7.40
2019-05-05T05:44:45.909Z,7.40
2019-05-05T05:49:13.464Z,7.30
2019-05-05T05:53:34.913Z,7.30
2019-05-05T05:57:54.153Z,7.30
2019-05-05T06:02:15.486Z,7.30
2019-05-05T06:06:36.357Z,7.30
2019-05-05T06:10:55.733Z,7.20
2019-05-05T06:15:16.242Z,7.30
2019-05-05T06:19:37.102Z,7.30
2019-05-05T06:23:55.363Z,7.40
2019-05-05T06:28:14.522Z,7.50
2019-05-05T06:32:34.290Z,7.60
2019-05-05T06:36:53.794Z,7.70
2019-05-05T06:41:40.442Z,7.80
2019-05-05T06:46:04.042Z,7.90
2019-05-05T06:50:24.188Z,7.90
2019-05-05T06:54:43.819Z,8.00
2019-05-05T06:59:04.303Z,8.00
2019-05-05T07:03:24.201Z,8.00
2019-05-05T07:07:43.549Z,8.00
2019-05-05T07:12:04.290Z,8.10
2019-05-05T07:16:24.167Z,8.20
2019-05-05T07:20:44.058Z,8.30
2019-05-05T07:25:04.682Z,8.40
2019-05-05T07:29:24.019Z,8.60
2019-05-05T07:33:43.919Z,8.80
2019-05-05T07:38:04.495Z,8.90
2019-05-05T07:42:24.295Z,9.10
2019-05-05T07:46:44.069Z,9.30
2019-05-05T07:51:05.318Z,9.50
2019-05-05T07:55:23.787Z,9.60
2019-05-05T07:59:44.992Z,9.70
2019-05-05T08:04:04.525Z,9.90
2019-05-05T08:08:24.415Z,10.10
2019-05-05T08:12:43.701Z,10.20
2019-05-05T08:17:10.919Z,10.30
2019-05-05T08:21:30.604Z,10.30
2019-05-05T08:26:20.000Z,10.40
2019-05-05T08:30:47.854Z,10.60
2019-05-05T08:35:07.917Z,10.90
2019-05-05T08:39:27.448Z,11.30
2019-05-05T08:43:46.238Z,12.00
2019-05-05T08:48:05.013Z,12.50
2019-05-05T08:52:23.903Z,12.80
2019-05-05T08:56:44.787Z,13.00
2019-05-05T09:01:04.432Z,13.10
2019-05-05T09:05:24.808Z,13.30
2019-05-05T09:09:44.147Z,13.60
2019-05-05T09:14:04.111Z,13.80
2019-05-05T09:18:24.597Z,14.20
2019-05-05T09:22:44.533Z,14.70
2019-05-05T09:27:07.854Z,15.30
2019-05-05T09:31:26.352Z,15.90
2019-05-05T09:35:45.710Z,16.50
2019-05-05T09:40:04.668Z,17.20
2019-05-05T09:44:24.249Z,17.70
2019-05-05T09:48:44.027Z,18.10
2019-05-05T09:53:04.229Z,18.50
2019-05-05T09:57:23.816Z,18.80
2019-05-05T10:01:44.523Z,18.90
2019-05-05T10:06:05.000Z,19.10
2019-05-05T10:10:24.439Z,19.30
2019-05-05T10:14:44.972Z,19.30
2019-05-05T10:19:04.601Z,19.20
2019-05-05T10:23:25.108Z,18.90
2019-05-05T10:27:47.774Z,18.50
2019-05-05T10:32:06.317Z,18.20
2019-05-05T10:36:29.151Z,17.90
2019-05-05T10:40:48.457Z,17.60
2019-05-05T10:45:08.792Z,17.30
2019-05-05T10:49:28.009Z,16.90
2019-05-05T10:53:46.333Z,16.40
2019-05-05T10:58:04.839Z,15.80
2019-05-05T11:02:24.187Z,15.10
2019-05-05T11:06:44.100Z,14.60
2019-05-05T11:11:04.194Z,14.30
2019-05-05T11:15:24.603Z,14.10
2019-05-05T11:19:44.348Z,14.20
2019-05-05T11:24:02.629Z,14.60
2019-05-05T11:28:22.248Z,14.80
2019-05-05T11:32:58.465Z,14.70
2019-05-05T11:37:19.515Z,14.50
2019-05-05T11:41:38.073Z,14.30
2019-05-05T11:45:57.091Z,14.00
2019-05-05T11:50:15.513Z,13.80
2019-05-05T11:54:33.894Z,13.70
2019-05-05T11:58:54.673Z,13.70
2019-05-05T12:03:14.411Z,13.50
2019-05-05T12:07:34.743Z,13.50
2019-05-05T12:11:54.485Z,13.50
2019-05-05T12:16:30.523Z,13.50
2019-05-05T12:20:49.271Z,13.50
2019-05-05T12:25:28.577Z,13.50
2019-05-05T12:29:54.647Z,13.50
2019-05-05T12:34:13.182Z,13.50
2019-05-05T12:38:31.573Z,13.60
2019-05-05T12:42:50.238Z,13.70
2019-05-05T12:47:27.449Z,13.90
2019-05-05T12:51:46.731Z,14.10
2019-05-05T12:56:05.157Z,14.20
2019-05-05T13:00:25.799Z,14.20
2019-05-05T13:04:44.392Z,14.10
2019-05-05T13:09:02.801Z,14.10
2019-05-05T13:13:23.727Z,14.20
2019-05-05T13:17:43.749Z,14.60
2019-05-05T13:22:25.517Z,15.10
2019-05-05T13:26:57.434Z,15.60
2019-05-05T13:31:17.678Z,16.00
2019-05-05T13:35:36.550Z,16.50
2019-05-05T13:39:55.703Z,17.00
2019-05-05T13:44:21.431Z,17.50
2019-05-05T13:48:41.781Z,17.80
2019-05-05T13:53:00.652Z,17.90
2019-05-05T13:57:19.033Z,17.90
2019-05-05T14:01:38.569Z,17.90
2019-05-05T14:05:57.477Z,17.70
2019-05-05T14:10:17.351Z,17.40
2019-05-05T14:14:37.709Z,17.00
2019-05-05T14:18:56.646Z,16.60
2019-05-05T14:23:16.025Z,16.20
2019-05-05T14:27:34.336Z,15.80
2019-05-05T14:31:55.497Z,15.70
2019-05-05T14:36:24.734Z,15.60
2019-05-05T14:40:44.559Z,15.60
2019-05-05T14:45:04.761Z,15.60
2019-05-05T14:49:24.634Z,15.50
2019-05-05T14:53:43.787Z,15.30
2019-05-05T14:58:03.959Z,15.30
2019-05-05T15:02:24.408Z,15.20
2019-05-05T15:07:00.272Z,15.20
2019-05-05T15:11:47.175Z,15.00
2019-05-05T15:16:05.927Z,14.90
2019-05-05T15:20:24.592Z,14.80
2019-05-05T15:24:44.140Z,14.70
2019-05-05T15:29:02.667Z,14.60
2019-05-05T15:33:21.712Z,14.40
2019-05-05T15:37:40.314Z,14.30
2019-05-05T15:41:58.943Z,14.10
2019-05-05T15:46:25.159Z,13.90
2019-05-05T15:50:44.154Z,13.80
2019-05-05T15:55:04.532Z,13.60
2019-05-05T15:59:23.921Z,13.60
2019-05-05T16:03:43.947Z,13.50
2019-05-05T16:08:04.547Z,13.60
2019-05-05T16:12:34.015Z,13.50
2019-05-05T16:16:56.108Z,13.60
2019-05-05T16:21:34.610Z,13.60
2019-05-05T16:25:54.330Z,13.50
2019-05-05T16:30:14.829Z,13.40
2019-05-05T16:34:33.791Z,13.30
2019-05-05T16:38:53.527Z,13.30
2019-05-05T16:43:16.539Z,13.30
2019-05-05T16:47:33.644Z,13.30
2019-05-05T16:52:00.926Z,13.30
2019-05-05T16:56:20.104Z,13.10
2019-05-05T17:00:39.421Z,13.00
2019-05-05T17:04:58.179Z,12.80
2019-05-05T17:09:18.196Z,12.70
2019-05-05T17:13:58.732Z,12.70
2019-05-05T17:18:38.517Z,12.60
2019-05-05T17:23:00.021Z,12.50
2019-05-05T17:27:18.297Z,12.30
2019-05-05T17:31:36.644Z,12.20
2019-05-05T17:35:55.110Z,12.20
2019-05-05T17:40:24.348Z,12.20
2019-05-05T17:45:00.196Z,12.20
2019-05-05T17:49:50.871Z,12.10
2019-05-05T17:54:34.504Z,12.10
2019-05-05T17:58:53.826Z,12.10
2019-05-05T18:03:12.945Z,12.00
2019-05-05T18:07:40.709Z,12.00
2019-05-05T18:12:16.559Z,12.00
2019-05-05T18:16:34.992Z,11.90
2019-05-05T18:20:54.280Z,11.80
2019-05-05T18:25:14.352Z,11.70
2019-05-05T18:29:34.027Z,11.60
2019-05-05T18:33:54.350Z,11.50
2019-05-05T18:38:13.860Z,11.50
2019-05-05T18:42:33.998Z,11.40
2019-05-05T18:47:15.717Z,11.30
2019-05-05T18:51:34.617Z,11.20
2019-05-05T18:55:55.874Z,11.10
2019-05-05T19:00:18.549Z,11.00
2019-05-05T19:04:48.639Z,10.90
2019-05-05T19:09:09.022Z,10.80
2019-05-05T19:13:27.690Z,10.70
2019-05-05T19:17:45.997Z,10.60
2019-05-05T19:22:09.319Z,10.60
2019-05-05T19:26:29.073Z,10.60
2019-05-05T19:30:48.121Z,10.60
2019-05-05T19:35:06.973Z,10.60
2019-05-05T19:39:26.718Z,10.60
2019-05-05T19:43:55.021Z,10.60
2019-05-05T19:48:17.033Z,10.50
2019-05-05T19:52:35.333Z,10.50
2019-05-05T19:56:54.330Z,10.50
2019-05-05T20:01:12.873Z,10.50
2019-05-05T20:05:31.211Z,10.50
2019-05-05T20:09:49.660Z,10.50
2019-05-05T20:14:10.500Z,10.50
2019-05-05T20:18:30.030Z,10.40
2019-05-05T20:22:48.781Z,10.40
2019-05-05T20:27:07.820Z,10.40
2019-05-05T20:31:26.838Z,10.30
2019-05-05T20:36:14.371Z,10.20
2019-05-05T20:40:35.868Z,10.20
2019-05-05T20:44:54.982Z,10.10
2019-05-05T20:49:14.421Z,10.00
2019-05-05T20:53:34.455Z,10.00
2019-05-05T20:57:53.735Z,9.90
2019-05-05T21:02:13.668Z,9.90
2019-05-05T21:06:34.262Z,9.90
2019-05-05T21:10:53.769Z,9.80
2019-05-05T21:15:13.210Z,9.80
2019-05-05T21:19:34.550Z,9.70
2019-05-05T21:23:57.577Z,9.70
2019-05-05T21:28:16.066Z,9.70
2019-05-05T21:32:34.359Z,9.60
2019-05-05T21:36:54.096Z,9.60
2019-05-05T21:41:13.858Z,9.60
2019-05-05T21:45:34.488Z,9.50
2019-05-05T21:49:54.216Z,9.50
2019-05-05T21:54:30.421Z,9.50
2019-05-05T21:58:48.893Z,9.40
2019-05-05T22:03:07.761Z,9.40
2019-05-05T22:07:26.291Z,9.30
2019-05-05T22:11:44.732Z,9.30
2019-05-05T22:16:04.099Z,9.30
2019-05-05T22:20:29.405Z,9.30
2019-05-05T22:24:48.246Z,9.20
2019-05-05T22:29:06.524Z,9.30
2019-05-05T22:33:24.917Z,9.20
2019-05-05T22:37:43.942Z,9.20
2019-05-05T22:42:04.558Z,9.20
2019-05-05T22:46:23.768Z,9.20
2019-05-05T22:50:43.664Z,9.20
2019-05-05T22:55:04.535Z,9.20
2019-05-05T22:59:25.579Z,9.20
2019-05-05T23:03:55.232Z,9.10
2019-05-05T23:08:13.843Z,9.10
2019-05-05T23:12:35.065Z,9.00
2019-05-05T23:16:55.980Z,9.00
2019-05-05T23:21:31.326Z,8.90
2019-05-05T23:25:54.377Z,8.90
2019-05-05T23:30:15.774Z,8.80
2019-05-05T23:34:33.932Z,8.80
2019-05-05T23:38:54.698Z,8.70
2019-05-05T23:43:13.932Z,8.60
2019-05-05T23:47:34.558Z,8.60
2019-05-05T23:51:54.035Z,8.50
2019-05-05T23:56:13.620Z,8.50
